createdAt,value
2023-01-25T00:02:07.157Z,2.20
2023-01-25T00:04:54.546Z,2.00
2023-01-25T00:07:41.497Z,1.90
2023-01-25T00:10:28.947Z,2.10
2023-01-25T00:13:15.876Z,2.30
2023-01-25T00:16:21.714Z,2.30
2023-01-25T00:19:04.059Z,2.40
2023-01-25T00:21:51.250Z,2.50
2023-01-25T00:24:58.215Z,2.50
2023-01-25T00:27:45.565Z,2.40
2023-01-25T00:30:12.902Z,2.30
2023-01-25T00:33:17.549Z,2.00
2023-01-25T00:36:40.708Z,1.90
2023-01-25T00:39:42.588Z,2.00
2023-01-25T00:42:15.983Z,2.10
2023-01-25T00:45:02.917Z,2.10
2023-01-25T00:47:50.544Z,2.10
2023-01-25T00:50:37.542Z,2.20
2023-01-25T00:53:04.793Z,2.30
2023-01-25T00:55:52.563Z,2.30
2023-01-25T00:58:54.323Z,2.20
2023-01-25T01:01:56.303Z,2.20
2023-01-25T01:04:26.682Z,2.00
2023-01-25T01:07:14.858Z,1.90
2023-01-25T01:10:02.036Z,2.10
2023-01-25T01:12:48.969Z,2.00
2023-01-25T01:15:16.187Z,2.00
2023-01-25T01:18:23.196Z,2.00
2023-01-25T01:21:25.009Z,1.80
2023-01-25T01:24:27.331Z,1.80
2023-01-25T01:27:09.287Z,1.60
2023-01-25T01:29:56.455Z,1.40
2023-01-25T01:32:43.454Z,1.60
2023-01-25T01:35:30.763Z,1.70
2023-01-25T01:38:17.691Z,1.80
2023-01-25T01:41:05.124Z,1.80
2023-01-25T01:43:53.204Z,1.80
2023-01-25T01:47:01.964Z,1.70
2023-01-25T01:49:50.137Z,1.80
2023-01-25T01:52:52.099Z,1.80
2023-01-25T01:55:40.239Z,1.90
2023-01-25T01:59:07.617Z,1.80
2023-01-25T02:02:29.424Z,1.70
2023-01-25T02:05:19.772Z,1.70
2023-01-25T02:08:09.506Z,1.70
2023-01-25T02:11:11.628Z,1.50
2023-01-25T02:13:59.750Z,1.40
2023-01-25T02:17:06.815Z,1.40
2023-01-25T02:20:22.179Z,1.20
2023-01-25T02:23:24.916Z,1.50
2023-01-25T02:26:26.839Z,1.50
2023-01-25T02:29:24.625Z,1.50
2023-01-25T02:32:13.461Z,1.60
2023-01-25T02:35:19.599Z,1.50
2023-01-25T02:38:21.459Z,1.60
2023-01-25T02:41:14.089Z,1.60
2023-01-25T02:44:10.070Z,1.50
2023-01-25T02:46:57.314Z,1.60
2023-01-25T02:50:04.283Z,1.60
2023-01-25T02:53:06.062Z,1.20
2023-01-25T02:55:51.055Z,1.30
2023-01-25T02:58:38.238Z,1.20
2023-01-25T03:01:25.187Z,1.30
2023-01-25T03:04:12.459Z,1.30
2023-01-25T03:06:59.382Z,1.30
2023-01-25T03:09:46.586Z,1.10
2023-01-25T03:12:33.513Z,0.90
2023-01-25T03:15:35.324Z,0.80
2023-01-25T03:18:17.240Z,0.70
2023-01-25T03:21:19.868Z,0.70
2023-01-25T03:24:07.438Z,0.80
2023-01-25T03:27:14.649Z,0.80
2023-01-25T03:29:56.535Z,0.70
2023-01-25T03:32:43.765Z,0.70
2023-01-25T03:35:30.627Z,0.70
2023-01-25T03:38:19.822Z,0.50
2023-01-25T03:41:07.913Z,0.50
2023-01-25T03:44:11.612Z,0.50
2023-01-25T03:47:13.460Z,0.60
2023-01-25T03:50:15.293Z,0.70
2023-01-25T03:53:06.164Z,0.90
2023-01-25T03:56:09.099Z,0.80
2023-01-25T03:59:11.933Z,0.80
2023-01-25T04:02:14.794Z,0.90
2023-01-25T04:04:56.652Z,0.90
2023-01-25T04:07:43.844Z,0.90
2023-01-25T04:10:30.948Z,0.90
2023-01-25T04:13:18.154Z,1.00
2023-01-25T04:16:07.169Z,1.00
2023-01-25T04:18:54.376Z,0.80
2023-01-25T04:21:41.271Z,0.70
2023-01-25T04:24:28.587Z,0.80
2023-01-25T04:26:55.540Z,0.80
2023-01-25T04:29:42.830Z,0.90
2023-01-25T04:32:49.901Z,0.80
2023-01-25T04:35:37.234Z,0.70
2023-01-25T04:38:24.349Z,0.70
2023-01-25T04:41:29.219Z,0.70
2023-01-25T04:44:16.423Z,0.80
2023-01-25T04:47:03.870Z,0.80
2023-01-25T04:49:31.271Z,0.80
2023-01-25T04:52:38.173Z,0.80
2023-01-25T04:55:25.489Z,0.60
2023-01-25T04:58:12.460Z,0.70
2023-01-25T05:00:54.349Z,0.60
2023-01-25T05:03:41.590Z,0.50
2023-01-25T05:06:28.472Z,0.60
2023-01-25T05:09:30.881Z,0.50
2023-01-25T05:12:13.784Z,0.60
2023-01-25T05:15:15.595Z,0.60
2023-01-25T05:18:22.798Z,0.60
2023-01-25T05:21:48.868Z,0.60
2023-01-25T05:24:50.627Z,0.60
2023-01-25T05:27:38.692Z,0.70
2023-01-25T05:30:06.303Z,0.70
2023-01-25T05:32:53.532Z,0.60
2023-01-25T05:35:40.515Z,0.60
2023-01-25T05:38:42.405Z,0.50
2023-01-25T05:41:24.270Z,0.60
2023-01-25T05:44:11.444Z,0.60
2023-01-25T05:47:38.239Z,0.70
2023-01-25T05:50:40.023Z,0.70
2023-01-25T05:53:41.834Z,0.80
2023-01-25T05:56:29.265Z,0.70
2023-01-25T05:59:17.403Z,0.70
2023-01-25T06:02:19.290Z,0.70
2023-01-25T06:05:21.177Z,0.50
2023-01-25T06:08:22.960Z,0.50
2023-01-25T06:10:50.777Z,0.50
2023-01-25T06:13:57.679Z,0.40
2023-01-25T06:16:59.564Z,0.30
2023-01-25T06:19:46.877Z,0.00
2023-01-25T06:22:13.918Z,0.10
2023-01-25T06:25:15.718Z,0.10
2023-01-25T06:28:02.893Z,0.10
2023-01-25T06:31:09.878Z,0.10
2023-01-25T06:33:37.749Z,0.20
2023-01-25T06:36:25.986Z,0.10
2023-01-25T06:39:33.107Z,0.20
2023-01-25T06:42:39.982Z,0.10
2023-01-25T06:45:27.389Z,0.20
2023-01-25T06:48:54.247Z,0.20
2023-01-25T06:52:15.975Z,-0.10
2023-01-25T06:55:23.692Z,0.00
2023-01-25T06:58:10.607Z,0.20
2023-01-25T07:00:57.813Z,0.20
2023-01-25T07:03:24.763Z,0.30
2023-01-25T07:06:12.207Z,0.00
2023-01-25T07:09:23.838Z,-0.20
2023-01-25T07:12:26.056Z,-0.10
2023-01-25T07:14:53.315Z,0.00
2023-01-25T07:18:14.832Z,0.00
2023-01-25T07:21:06.422Z,-0.10
2023-01-25T07:23:54.125Z,-0.20
2023-01-25T07:26:35.997Z,-0.40
2023-01-25T07:29:23.317Z,-0.40
2023-01-25T07:32:11.955Z,-0.20
2023-01-25T07:35:33.732Z,0.00
2023-01-25T07:38:40.948Z,0.10
2023-01-25T07:41:28.066Z,0.00
2023-01-25T07:44:10.736Z,-0.10
2023-01-25T07:46:58.016Z,-0.20
2023-01-25T07:50:05.077Z,0.10
2023-01-25T07:52:52.295Z,0.20
2023-01-25T07:55:19.512Z,0.30
2023-01-25T07:58:21.568Z,0.30
2023-01-25T08:01:32.120Z,0.30
2023-01-25T08:04:54.189Z,0.40
2023-01-25T08:08:15.898Z,0.40
2023-01-25T08:11:17.706Z,0.50
2023-01-25T08:13:46.310Z,0.40
2023-01-25T08:16:33.452Z,0.40
2023-01-25T08:19:35.710Z,0.40
2023-01-25T08:22:37.604Z,0.40
2023-01-25T08:25:19.473Z,0.40
2023-01-25T08:28:21.432Z,0.20
2023-01-25T08:31:31.901Z,0.00
2023-01-25T08:34:19.500Z,-0.30
2023-01-25T08:37:06.447Z,-0.20
2023-01-25T08:39:53.787Z,-0.20
2023-01-25T08:42:43.155Z,0.10
2023-01-25T08:45:24.989Z,0.40
2023-01-25T08:47:52.212Z,0.30
2023-01-25T08:50:19.267Z,0.30
2023-01-25T08:52:46.511Z,0.40
2023-01-25T08:55:13.462Z,0.40
2023-01-25T08:57:41.181Z,0.40
2023-01-25T09:00:09.130Z,0.10
2023-01-25T09:02:36.857Z,0.00
2023-01-25T09:05:03.972Z,0.10
2023-01-25T09:07:32.542Z,0.30
2023-01-25T09:10:00.545Z,0.40
2023-01-25T09:12:27.816Z,0.50
2023-01-25T09:14:54.748Z,0.40
2023-01-25T09:17:21.971Z,0.40
2023-01-25T09:19:52.451Z,0.40
2023-01-25T09:22:19.818Z,0.40
2023-01-25T09:24:52.293Z,0.30
2023-01-25T09:27:19.697Z,0.40
2023-01-25T09:30:01.001Z,0.20
2023-01-25T09:32:29.760Z,0.30
2023-01-25T09:34:56.852Z,0.40
2023-01-25T09:37:24.110Z,0.40
2023-01-25T09:39:51.150Z,0.10
2023-01-25T09:42:32.675Z,0.20
2023-01-25T09:45:22.739Z,0.30
2023-01-25T09:47:59.313Z,0.50
2023-01-25T09:50:35.446Z,0.50
2023-01-25T09:53:24.520Z,0.40
2023-01-25T09:55:54.374Z,0.40
2023-01-25T09:58:43.198Z,0.40
2023-01-25T10:01:36.616Z,0.10
2023-01-25T10:04:18.620Z,0.20
2023-01-25T10:07:00.108Z,0.40
2023-01-25T10:09:47.003Z,0.50
2023-01-25T10:12:25.219Z,0.60
2023-01-25T10:14:53.146Z,0.60
2023-01-25T10:17:39.100Z,0.60
2023-01-25T10:20:10.098Z,0.40
2023-01-25T10:22:45.348Z,0.20
2023-01-25T10:25:29.322Z,0.30
2023-01-25T10:28:14.734Z,0.00
2023-01-25T10:31:07.963Z,0.20
2023-01-25T10:33:40.647Z,0.40
2023-01-25T10:36:18.313Z,0.60
2023-01-25T10:38:59.139Z,0.60
2023-01-25T10:41:43.034Z,0.40
2023-01-25T10:44:21.859Z,0.20
2023-01-25T10:47:16.821Z,0.30
2023-01-25T10:49:48.469Z,0.40
2023-01-25T10:52:27.509Z,0.20
2023-01-25T10:55:15.994Z,0.00
2023-01-25T10:57:53.652Z,0.20
2023-01-25T11:00:40.488Z,0.40
2023-01-25T11:03:20.944Z,0.40
2023-01-25T11:05:57.679Z,0.50
2023-01-25T11:08:30.857Z,0.60
2023-01-25T11:10:59.528Z,0.60
2023-01-25T11:13:29.150Z,0.60
2023-01-25T11:16:18.221Z,0.30
2023-01-25T11:18:53.818Z,0.30
2023-01-25T11:21:30.003Z,0.50
2023-01-25T11:24:09.738Z,0.60
2023-01-25T11:26:39.142Z,0.60
2023-01-25T11:29:07.949Z,0.60
2023-01-25T11:31:35.624Z,0.70
2023-01-25T11:34:03.416Z,0.40
2023-01-25T11:36:42.396Z,0.60
2023-01-25T11:39:31.335Z,0.60
2023-01-25T11:42:04.378Z,0.60
2023-01-25T11:44:46.586Z,0.70
2023-01-25T11:47:42.943Z,0.70
2023-01-25T11:50:21.680Z,0.50
2023-01-25T11:53:12.854Z,0.30
2023-01-25T11:56:11.621Z,0.40
2023-01-25T11:59:08.800Z,0.40
2023-01-25T12:02:08.625Z,0.20
2023-01-25T12:04:49.852Z,0.50
2023-01-25T12:07:43.041Z,0.60
2023-01-25T12:10:34.726Z,0.40
2023-01-25T12:13:17.113Z,0.40
2023-01-25T12:15:49.904Z,0.20
2023-01-25T12:18:36.304Z,0.10
2023-01-25T12:21:17.471Z,0.30
2023-01-25T12:23:56.231Z,0.30
2023-01-25T12:26:30.391Z,0.30
2023-01-25T12:29:05.896Z,0.30
2023-01-25T12:32:03.163Z,0.40
2023-01-25T12:34:37.630Z,0.40
2023-01-25T12:37:18.926Z,0.50
2023-01-25T12:40:15.319Z,0.50
2023-01-25T12:42:52.033Z,0.30
2023-01-25T12:45:25.352Z,0.40
2023-01-25T12:47:54.858Z,0.60
2023-01-25T12:50:25.865Z,0.70
2023-01-25T12:53:13.947Z,0.80
2023-01-25T12:55:41.720Z,0.80
2023-01-25T12:58:40.298Z,0.70
2023-01-25T13:01:30.859Z,0.80
2023-01-25T13:04:19.426Z,0.90
2023-01-25T13:06:55.004Z,1.00
2023-01-25T13:09:34.980Z,1.00
2023-01-25T13:12:12.482Z,1.00
2023-01-25T13:14:41.494Z,0.90
2023-01-25T13:17:30.766Z,0.90
2023-01-25T13:19:59.590Z,0.90
2023-01-25T13:22:45.289Z,1.00
2023-01-25T13:25:24.421Z,1.00
2023-01-25T13:27:52.738Z,0.80
2023-01-25T13:30:22.200Z,0.70
2023-01-25T13:32:49.408Z,0.80
2023-01-25T13:35:27.271Z,0.80
2023-01-25T13:38:05.824Z,0.80
2023-01-25T13:40:38.318Z,0.70
2023-01-25T13:43:13.085Z,0.90
2023-01-25T13:45:42.437Z,1.00
2023-01-25T13:48:21.934Z,0.90
2023-01-25T13:51:14.213Z,0.90
2023-01-25T13:53:43.360Z,0.70
2023-01-25T13:56:37.512Z,0.60
2023-01-25T13:59:04.847Z,0.60
2023-01-25T14:01:34.187Z,0.70
2023-01-25T14:04:04.710Z,0.80
2023-01-25T14:06:37.098Z,0.90
2023-01-25T14:09:16.869Z,1.00
2023-01-25T14:11:58.683Z,1.00
2023-01-25T14:14:31.414Z,1.00
2023-01-25T14:17:18.068Z,0.80
2023-01-25T14:19:49.853Z,0.60
2023-01-25T14:22:20.177Z,0.50
2023-01-25T14:25:09.661Z,0.60
2023-01-25T14:27:43.479Z,0.80
2023-01-25T14:30:22.285Z,0.80
2023-01-25T14:32:51.510Z,0.80
2023-01-25T14:35:43.260Z,0.80
2023-01-25T14:38:37.216Z,0.70
2023-01-25T14:41:40.103Z,0.50
2023-01-25T14:44:14.718Z,0.50
2023-01-25T14:46:42.201Z,0.30
2023-01-25T14:49:28.813Z,0.40
2023-01-25T14:52:05.124Z,0.40
2023-01-25T14:54:37.900Z,0.50
2023-01-25T14:57:07.534Z,0.60
2023-01-25T14:59:41.772Z,0.70
2023-01-25T15:02:46.117Z,0.60
2023-01-25T15:05:20.520Z,0.40
2023-01-25T15:08:12.261Z,0.40
2023-01-25T15:11:18.852Z,0.30
2023-01-25T15:13:46.699Z,0.30
2023-01-25T15:16:16.439Z,0.30
2023-01-25T15:18:51.287Z,0.30
2023-01-25T15:21:19.407Z,0.50
2023-01-25T15:23:48.773Z,0.40
2023-01-25T15:26:21.774Z,0.40
2023-01-25T15:28:50.839Z,0.30
2023-01-25T15:31:21.570Z,0.40
2023-01-25T15:33:48.960Z,0.50
2023-01-25T15:36:17.795Z,0.50
2023-01-25T15:38:45.619Z,0.30
2023-01-25T15:41:13.791Z,0.30
2023-01-25T15:43:41.960Z,0.30
2023-01-25T15:46:27.904Z,0.30
2023-01-25T15:48:55.937Z,0.30
2023-01-25T15:51:23.560Z,0.50
2023-01-25T15:53:50.970Z,0.60
2023-01-25T15:56:28.500Z,0.60
2023-01-25T15:58:58.889Z,0.60
2023-01-25T16:01:27.702Z,0.50
2023-01-25T16:03:56.532Z,0.40
2023-01-25T16:06:40.737Z,0.50
2023-01-25T16:09:19.852Z,0.50
2023-01-25T16:11:48.745Z,0.60
2023-01-25T16:14:16.004Z,0.50
2023-01-25T16:16:51.433Z,0.30
2023-01-25T16:19:22.009Z,0.20
2023-01-25T16:21:49.750Z,0.30
2023-01-25T16:24:17.903Z,0.40
2023-01-25T16:26:51.518Z,0.50
2023-01-25T16:29:18.936Z,0.50
2023-01-25T16:31:46.102Z,0.50
2023-01-25T16:34:13.450Z,0.50
2023-01-25T16:36:40.670Z,0.30
2023-01-25T16:39:20.080Z,0.30
2023-01-25T16:41:48.313Z,0.30
2023-01-25T16:44:16.467Z,0.30
2023-01-25T16:46:44.047Z,0.20
2023-01-25T16:49:16.935Z,0.40
2023-01-25T16:51:45.440Z,0.40
2023-01-25T16:54:12.845Z,0.40
2023-01-25T16:56:39.904Z,0.40
2023-01-25T16:59:09.331Z,0.50
2023-01-25T17:01:39.129Z,0.40
2023-01-25T17:04:06.990Z,0.40
2023-01-25T17:06:36.258Z,0.50
2023-01-25T17:09:20.407Z,0.50
2023-01-25T17:11:49.613Z,0.40
2023-01-25T17:14:19.083Z,0.40
2023-01-25T17:16:48.395Z,0.40
2023-01-25T17:19:17.171Z,0.50
2023-01-25T17:21:45.226Z,0.50
2023-01-25T17:24:19.100Z,0.60
2023-01-25T17:26:46.441Z,0.50
2023-01-25T17:29:13.924Z,0.50
2023-01-25T17:31:42.247Z,0.40
2023-01-25T17:34:13.342Z,0.30
2023-01-25T17:36:40.360Z,0.40
2023-01-25T17:39:08.197Z,0.40
2023-01-25T17:41:35.450Z,0.50
2023-01-25T17:44:03.170Z,0.60
2023-01-25T17:46:34.570Z,0.50
2023-01-25T17:49:08.368Z,0.40
2023-01-25T17:51:36.582Z,0.40
2023-01-25T17:54:04.759Z,0.30
2023-01-25T17:56:32.026Z,0.40
2023-01-25T17:59:01.456Z,0.50
2023-01-25T18:01:32.079Z,0.60
2023-01-25T18:04:00.748Z,0.60
2023-01-25T18:06:30.868Z,0.50
2023-01-25T18:09:00.696Z,0.40
2023-01-25T18:11:33.390Z,0.50
2023-01-25T18:14:08.220Z,0.50
2023-01-25T18:16:38.721Z,0.50
2023-01-25T18:19:06.799Z,0.50
2023-01-25T18:21:34.034Z,0.40
2023-01-25T18:24:05.724Z,0.30
2023-01-25T18:26:35.615Z,0.30
2023-01-25T18:29:34.581Z,0.30
2023-01-25T18:32:01.643Z,0.20
2023-01-25T18:34:28.923Z,0.40
2023-01-25T18:36:59.312Z,0.60
2023-01-25T18:39:27.353Z,0.40
2023-01-25T18:41:54.977Z,0.30
2023-01-25T18:44:22.197Z,0.40
2023-01-25T18:46:49.302Z,0.30
2023-01-25T18:49:16.572Z,0.20
2023-01-25T18:52:04.862Z,0.30
2023-01-25T18:54:32.425Z,0.40
2023-01-25T18:57:00.479Z,0.50
2023-01-25T18:59:27.943Z,0.40
2023-01-25T19:01:54.951Z,0.30
2023-01-25T19:04:22.197Z,0.20
2023-01-25T19:06:53.734Z,0.40
2023-01-25T19:09:20.961Z,0.30
2023-01-25T19:11:47.870Z,0.30
2023-01-25T19:14:15.256Z,0.20
2023-01-25T19:16:42.190Z,0.20
2023-01-25T19:19:09.860Z,0.20
2023-01-25T19:21:37.110Z,0.20
2023-01-25T19:24:04.635Z,0.20
2023-01-25T19:26:31.692Z,0.30
2023-01-25T19:28:58.896Z,0.30
2023-01-25T19:31:28.262Z,0.20
2023-01-25T19:34:00.427Z,0.20
2023-01-25T19:36:29.045Z,0.20
2023-01-25T19:38:59.718Z,0.20
2023-01-25T19:41:28.657Z,0.20
2023-01-25T19:44:03.643Z,0.30
2023-01-25T19:46:32.479Z,0.20
2023-01-25T19:49:01.909Z,0.20
2023-01-25T19:51:31.561Z,0.20
2023-01-25T19:54:04.612Z,0.20
2023-01-25T19:56:37.535Z,0.20
2023-01-25T19:59:06.808Z,0.20
2023-01-25T20:01:36.680Z,0.20
2023-01-25T20:04:06.060Z,0.10
2023-01-25T20:06:33.237Z,0.20
2023-01-25T20:09:00.497Z,0.20
2023-01-25T20:11:32.652Z,0.20
2023-01-25T20:14:02.276Z,0.20
2023-01-25T20:16:30.873Z,0.20
2023-01-25T20:18:58.499Z,0.20
2023-01-25T20:21:26.782Z,0.30
2023-01-25T20:23:58.398Z,0.30
2023-01-25T20:26:28.229Z,0.30
2023-01-25T20:28:57.498Z,0.30
2023-01-25T20:31:33.622Z,0.20
2023-01-25T20:34:03.641Z,0.20
2023-01-25T20:36:32.818Z,0.20
2023-01-25T20:39:00.642Z,0.20
2023-01-25T20:41:27.760Z,0.30
2023-01-25T20:44:04.471Z,0.30
2023-01-25T20:46:34.682Z,0.20
2023-01-25T20:49:02.256Z,0.30
2023-01-25T20:51:29.662Z,0.30
2023-01-25T20:53:57.568Z,0.30
2023-01-25T20:56:24.731Z,0.30
2023-01-25T20:58:52.864Z,0.30
2023-01-25T21:01:33.376Z,0.30
2023-01-25T21:04:00.579Z,0.30
2023-01-25T21:06:28.151Z,0.30
2023-01-25T21:08:55.416Z,0.30
2023-01-25T21:11:25.921Z,0.40
2023-01-25T21:13:54.109Z,0.50
2023-01-25T21:16:22.900Z,0.50
2023-01-25T21:18:52.652Z,0.60
2023-01-25T21:21:22.204Z,0.60
2023-01-25T21:23:50.722Z,0.60
2023-01-25T21:26:20.385Z,0.60
2023-01-25T21:28:48.369Z,0.50
2023-01-25T21:31:18.461Z,0.50
2023-01-25T21:33:46.970Z,0.50
2023-01-25T21:36:15.192Z,0.40
2023-01-25T21:38:44.627Z,0.50
2023-01-25T21:41:14.408Z,0.40
2023-01-25T21:44:00.264Z,0.50
2023-01-25T21:46:28.346Z,0.50
2023-01-25T21:49:18.296Z,0.50
2023-01-25T21:51:49.445Z,0.50
2023-01-25T21:54:21.990Z,0.40
2023-01-25T21:56:51.117Z,0.40
2023-01-25T21:59:19.107Z,0.40
2023-01-25T22:01:46.928Z,0.40
2023-01-25T22:04:16.367Z,0.40
2023-01-25T22:06:43.871Z,0.40
2023-01-25T22:09:13.297Z,0.40
2023-01-25T22:11:40.405Z,0.40
2023-01-25T22:14:07.851Z,0.40
2023-01-25T22:16:34.776Z,0.50
2023-01-25T22:19:02.011Z,0.50
2023-01-25T22:21:32.071Z,0.50
2023-01-25T22:24:01.637Z,0.50
2023-01-25T22:26:57.711Z,0.60
2023-01-25T22:29:25.433Z,0.50
2023-01-25T22:31:52.414Z,0.60
2023-01-25T22:34:19.694Z,0.60
2023-01-25T22:36:46.629Z,0.50
2023-01-25T22:39:15.012Z,0.50
2023-01-25T22:41:42.385Z,0.50
2023-01-25T22:44:10.082Z,0.50
2023-01-25T22:46:37.210Z,0.60
2023-01-25T22:49:04.943Z,0.60
2023-01-25T22:51:32.506Z,0.60
2023-01-25T22:54:00.624Z,0.60
2023-01-25T22:56:30.069Z,0.60
2023-01-25T22:58:59.553Z,0.70
2023-01-25T23:01:31.656Z,0.70
2023-01-25T23:03:59.617Z,0.80
2023-01-25T23:06:29.467Z,0.80
2023-01-25T23:08:59.907Z,0.80
2023-01-25T23:11:32.407Z,0.90
2023-01-25T23:14:18.602Z,0.90
2023-01-25T23:16:45.950Z,0.90
2023-01-25T23:19:14.525Z,0.80
2023-01-25T23:21:42.313Z,0.80
2023-01-25T23:24:10.505Z,0.80
2023-01-25T23:26:38.307Z,0.80
2023-01-25T23:29:08.619Z,0.80
2023-01-25T23:31:36.170Z,0.80
2023-01-25T23:34:05.282Z,0.80
2023-01-25T23:36:34.986Z,0.90
2023-01-25T23:39:02.479Z,0.90
2023-01-25T23:41:30.308Z,0.90
2023-01-25T23:43:58.167Z,1.00
2023-01-25T23:46:26.022Z,1.10
2023-01-25T23:48:53.298Z,1.10
2023-01-25T23:51:20.845Z,1.10
2023-01-25T23:53:48.101Z,1.20
2023-01-25T23:56:21.347Z,1.10
2023-01-25T23:58:49.065Z,1.20
